Time;durP1;ratioP1;P1;durP2;ratioP2;P2;SDS_P1;SDS_P2;PMS_P1;PMS_P2;Temp;Humidity;BMP_temperature;BMP_pressure;BME280_temperature;BME280_humidity;BME280_pressure;Samples;Min_cycle;Max_cycle;Signal;HPM_P1;HPM_P2
2023/11/18 00:00:18;;;;;;;1.23;0.13;;;;;;;6.52;69.04;100972.50;5097414;28;20027;-65
2023/11/18 00:02:44;;;;;;;0.95;0.20;;;;;;;6.39;70.23;100962.16;5093068;28;20119;-67
2023/11/18 00:05:13;;;;;;;1.38;0.13;;;;;;;6.27;71.06;100960.41;5092068;28;20032;-66
2023/11/18 00:07:39;;;;;;;0.88;0.15;;;;;;;6.28;69.61;100957.72;5090219;28;20063;-66
2023/11/18 00:10:06;;;;;;;0.50;0.13;;;;;;;6.33;69.45;100958.22;5089932;28;20391;-66
2023/11/18 00:12:34;;;;;;;0.73;0.10;;;;;;;6.32;69.19;100955.75;5103538;28;20040;-66
2023/11/18 00:15:00;;;;;;;0.38;0.20;;;;;;;6.28;68.71;100957.72;5089709;28;20468;-65
2023/11/18 00:17:25;;;;;;;0.50;0.10;;;;;;;6.27;69.51;100969.00;5085053;28;20032;-66
2023/11/18 00:19:51;;;;;;;0.47;0.10;;;;;;;6.20;69.63;100965.16;5090281;28;20035;-66
2023/11/18 00:22:16;;;;;;;1.70;0.10;;;;;;;6.19;67.87;100966.09;5088345;28;20391;-67
2023/11/18 00:24:43;;;;;;;0.50;0.00;;;;;;;6.25;67.91;100960.50;5086443;28;20031;-66
2023/11/18 00:27:09;;;;;;;1.05;0.10;;;;;;;6.32;66.29;100966.94;5091283;28;20036;-66
2023/11/18 00:29:35;;;;;;;0.32;0.00;;;;;;;6.38;66.85;100964.84;5080995;28;20029;-67
2023/11/18 00:32:01;;;;;;;0.90;0.10;;;;;;;6.38;66.68;100962.25;5091626;28;20035;-66
2023/11/18 00:34:26;;;;;;;0.20;0.10;;;;;;;6.43;65.88;100967.97;5090196;28;20480;-66
2023/11/18 00:36:52;;;;;;;0.55;0.10;;;;;;;6.41;65.39;100967.22;5091770;28;20113;-66
2023/11/18 00:39:17;;;;;;;0.88;0.10;;;;;;;6.35;66.44;100968.47;5092583;28;20032;-66
2023/11/18 00:41:43;;;;;;;1.00;0.10;;;;;;;6.24;68.31;100976.97;5091819;28;20118;-65
2023/11/18 00:44:09;;;;;;;0.30;0.05;;;;;;;6.06;69.39;100980.00;5093448;28;20047;-66
2023/11/18 00:46:36;;;;;;;0.30;0.05;;;;;;;6.02;69.74;100987.13;5090541;28;20498;-67
2023/11/18 00:49:02;;;;;;;1.02;0.13;;;;;;;6.02;70.50;100992.31;5089329;28;20142;-67
2023/11/18 00:51:27;;;;;;;0.35;0.10;;;;;;;5.96;70.93;100992.72;5091404;28;20116;-66
2023/11/18 00:53:54;;;;;;;0.30;0.10;;;;;;;5.89;70.94;101004.38;5091723;28;20032;-67
2023/11/18 00:56:21;;;;;;;0.65;0.15;;;;;;;5.88;71.25;101007.88;5090600;28;20040;-66
2023/11/18 00:58:47;;;;;;;0.35;0.10;;;;;;;5.78;72.45;101015.41;5091450;28;20030;-67
2023/11/18 01:01:12;;;;;;;0.30;0.10;;;;;;;5.74;72.88;101013.94;5092558;28;20024;-66
2023/11/18 01:03:38;;;;;;;0.30;0.10;;;;;;;5.71;73.35;101010.72;5090935;28;20084;-66
2023/11/18 01:06:06;;;;;;;0.65;0.10;;;;;;;5.70;72.82;101019.41;5090187;28;20028;-66
2023/11/18 01:08:31;;;;;;;0.65;0.20;;;;;;;5.74;73.36;101033.78;5089814;28;20150;-66
2023/11/18 01:10:57;;;;;;;0.28;0.00;;;;;;;5.57;74.28;101038.31;5090432;28;20390;-66
2023/11/18 01:13:22;;;;;;;0.70;0.10;;;;;;;5.57;74.52;101053.00;5091483;28;20114;-66
2023/11/18 01:15:49;;;;;;;0.57;0.10;;;;;;;5.50;76.66;101055.13;5089639;28;20031;-66
2023/11/18 01:18:15;;;;;;;0.60;0.20;;;;;;;5.31;78.71;101067.56;5089642;28;20028;-66
2023/11/18 01:20:40;;;;;;;1.42;0.20;;;;;;;5.15;80.04;101072.03;5089880;28;20050;-66
2023/11/18 01:23:06;;;;;;;0.63;0.10;;;;;;;4.99;81.31;101072.97;5091432;28;20525;-66
2023/11/18 01:25:31;;;;;;;0.82;0.20;;;;;;;4.85;82.16;101085.88;5089971;28;20028;-66
2023/11/18 01:27:57;;;;;;;0.80;0.20;;;;;;;4.69;83.42;101085.19;5089781;28;20020;-66
2023/11/18 01:30:23;;;;;;;0.98;0.20;;;;;;;4.56;83.33;101084.25;5094346;28;20042;-66
2023/11/18 01:32:49;;;;;;;7.20;0.20;;;;;;;4.57;83.18;101086.72;5094312;28;20062;-66
2023/11/18 01:35:15;;;;;;;0.50;0.10;;;;;;;4.54;81.79;101078.34;5089863;28;20055;-66
2023/11/18 01:37:40;;;;;;;0.98;0.10;;;;;;;4.50;81.54;101087.19;5087013;28;20032;-66
2023/11/18 01:40:16;;;;;;;0.85;0.10;;;;;;;4.41;81.58;101079.97;5090067;28;20051;-66
2023/11/18 01:42:46;;;;;;;0.70;0.03;;;;;;;4.37;81.53;101068.16;5088900;28;20027;-66
2023/11/18 01:45:12;;;;;;;1.77;0.10;;;;;;;4.37;81.59;101065.59;5091204;28;20514;-66
2023/11/18 01:47:39;;;;;;;0.68;0.10;;;;;;;4.43;81.79;101073.81;5090403;28;20074;-66
2023/11/18 01:50:08;;;;;;;3.15;0.10;;;;;;;4.47;82.82;101075.28;5087055;28;20514;-66
2023/11/18 01:52:34;;;;;;;2.85;0.10;;;;;;;4.41;83.54;101091.13;5083175;28;20119;-66
2023/11/18 01:55:00;;;;;;;0.75;0.10;;;;;;;4.28;84.18;101088.41;5096003;28;20028;-66
2023/11/18 01:57:26;;;;;;;0.65;0.00;;;;;;;4.27;82.32;101088.50;5089540;28;20039;-66
2023/11/18 01:59:53;;;;;;;0.70;0.00;;;;;;;4.36;83.47;101082.81;5097301;28;20032;-65
2023/11/18 02:02:20;;;;;;;0.20;0.00;;;;;;;4.36;82.15;101087.97;5111435;28;20080;-66
2023/11/18 02:04:46;;;;;;;0.75;0.10;;;;;;;4.62;77.88;101095.03;5096114;28;20479;-66
2023/11/18 02:07:14;;;;;;;0.30;0.00;;;;;;;4.83;77.46;101090.31;5099336;28;20030;-65
2023/11/18 02:09:41;;;;;;;0.32;0.05;;;;;;;4.91;76.56;101088.09;5092127;28;20058;-66
2023/11/18 02:12:17;;;;;;;0.20;0.00;;;;;;;5.05;74.01;101086.44;5097222;28;20038;-67
2023/11/18 02:14:43;;;;;;;1.02;0.00;;;;;;;5.06;75.65;101095.84;5092055;28;20027;-66
2023/11/18 02:17:12;;;;;;;0.20;0.00;;;;;;;4.96;77.13;101105.91;5108000;28;20061;-66
2023/11/18 02:19:40;;;;;;;0.10;0.10;;;;;;;4.85;77.79;101106.53;5098534;28;20126;-66
2023/11/18 02:22:07;;;;;;;0.30;0.03;;;;;;;4.71;80.06;101105.75;5091345;28;20031;-66
2023/11/18 02:24:36;;;;;;;0.30;0.00;;;;;;;4.66;79.72;101104.25;5089842;28;20048;-66
2023/11/18 02:27:05;;;;;;;1.45;0.13;;;;;;;4.66;79.48;101100.84;5091262;28;20074;-66
2023/11/18 02:29:45;;;;;;;0.20;0.00;;;;;;;4.67;79.54;101099.91;5089302;28;20151;-66
2023/11/18 02:32:23;;;;;;;0.52;0.10;;;;;;;4.59;80.84;101115.84;5093147;28;20130;-66
2023/11/18 02:35:02;;;;;;;0.52;0.10;;;;;;;4.72;76.81;101107.41;5088125;28;20044;-66
2023/11/18 02:37:32;;;;;;;0.30;0.00;;;;;;;4.95;76.60;101102.50;5089080;28;21517;-66
2023/11/18 02:40:08;;;;;;;0.28;0.10;;;;;;;4.97;78.76;101104.97;5089667;28;20048;-66
2023/11/18 02:42:35;;;;;;;;;;;;;;;4.80;80.34;101107.75;5090159;28;20716;-65
2023/11/18 02:45:02;;;;;;;0.75;0.00;;;;;;;4.61;81.61;101113.19;5089810;28;20411;-65
2023/11/18 02:47:27;;;;;;;0.32;0.08;;;;;;;4.41;82.04;101116.09;5089703;28;20031;-66
2023/11/18 02:50:29;;;;;;;0.20;0.00;;;;;;;4.44;80.57;101131.41;5089462;28;20035;-66
2023/11/18 02:52:48;;;;;;;0.77;0.10;;;;;;;4.47;82.30;101118.31;5085066;28;20070;-66
2023/11/18 02:55:14;;;;;;;0.40;0.00;;;;;;;4.43;82.45;101125.41;5088767;28;20024;-66
2023/11/18 02:57:39;;;;;;;0.98;0.00;;;;;;;4.31;83.15;101129.53;5088812;28;20031;-66
2023/11/18 03:00:08;;;;;;;0.43;0.00;;;;;;;4.14;83.71;101134.84;5089352;28;20028;-67
2023/11/18 03:02:33;;;;;;;0.28;0.00;;;;;;;4.50;78.01;101128.47;5107587;28;20092;-66
2023/11/18 03:04:59;;;;;;;0.68;0.10;;;;;;;4.79;74.90;101130.16;5089484;28;20383;-65
2023/11/18 03:07:26;;;;;;;2.05;0.08;;;;;;;4.95;73.06;101141.22;5086415;28;20082;-66
2023/11/18 03:09:57;;;;;;;0.55;0.10;;;;;;;5.04;73.46;101128.69;5086906;28;20059;-65
2023/11/18 03:12:22;;;;;;;2.40;0.10;;;;;;;5.03;73.68;101132.19;5089608;28;20036;-66
2023/11/18 03:14:48;;;;;;;0.32;0.10;;;;;;;5.02;72.28;101130.53;5088928;28;20115;-66
2023/11/18 03:17:13;;;;;;;0.63;0.00;;;;;;;5.10;72.42;101139.47;5088823;28;20546;-67
2023/11/18 03:19:39;;;;;;;2.25;0.10;;;;;;;5.12;72.99;101144.56;5089530;28;20063;-66
2023/11/18 03:22:04;;;;;;;3.58;0.20;;;;;;;5.09;72.90;101144.75;5087508;28;20034;-66
2023/11/18 03:24:30;;;;;;;0.38;0.08;;;;;;;5.06;72.63;101132.84;5097044;28;20063;-67
2023/11/18 03:26:56;;;;;;;0.20;0.00;;;;;;;5.12;72.36;101140.22;5089895;28;20039;-66
2023/11/18 03:29:22;;;;;;;0.40;0.00;;;;;;;5.13;72.26;101153.97;5088029;28;20059;-66
2023/11/18 03:31:48;;;;;;;0.32;0.03;;;;;;;5.16;72.41;101156.38;5089340;28;20059;-66
2023/11/18 03:34:19;;;;;;;0.73;0.10;;;;;;;5.09;74.31;101162.81;5086944;28;20454;-66
2023/11/18 03:36:46;;;;;;;0.43;0.30;;;;;;;4.87;77.49;101156.34;5088907;28;20028;-66
2023/11/18 03:39:12;;;;;;;0.47;0.20;;;;;;;4.53;78.32;101161.84;5088650;28;20047;-66
2023/11/18 03:41:38;;;;;;;1.20;0.10;;;;;;;4.34;77.33;101170.63;5089268;28;20032;-65
2023/11/18 03:44:04;;;;;;;0.25;0.00;;;;;;;4.47;77.39;101163.03;5090270;28;20118;-66
2023/11/18 03:46:34;;;;;;;1.48;0.10;;;;;;;4.44;78.68;101167.53;5089229;28;20549;-66
2023/11/18 03:49:00;;;;;;;2.60;0.25;;;;;;;4.16;80.45;101158.78;5090524;28;20376;-66
2023/11/18 03:51:26;;;;;;;4.10;0.63;;;;;;;4.14;78.89;101160.63;5097335;28;20065;-66
2023/11/18 03:53:51;;;;;;;1.10;0.20;;;;;;;4.32;76.64;101162.13;5096683;28;20085;-66
2023/11/18 03:56:20;;;;;;;0.63;0.20;;;;;;;4.55;75.87;101165.16;5090898;28;20031;-66
2023/11/18 03:58:49;;;;;;;0.45;0.08;;;;;;;4.64;75.50;101167.22;5106703;28;20047;-66
2023/11/18 04:01:26;;;;;;;0.08;0.00;;;;;;;4.69;73.27;101162.63;5100891;28;20109;-67
2023/11/18 04:03:52;;;;;;;1.52;0.00;;;;;;;4.83;73.49;101166.94;5096369;28;20382;-66
2023/11/18 04:06:17;;;;;;;0.82;0.10;;;;;;;4.89;73.06;101170.00;5093910;28;20107;-66
2023/11/18 04:08:46;;;;;;;0.35;0.10;;;;;;;4.88;72.75;101172.66;5093590;28;20032;-67
2023/11/18 04:11:13;;;;;;;0.60;0.00;;;;;;;5.02;71.14;101175.28;5091416;28;20024;-67
2023/11/18 04:13:41;;;;;;;0.50;0.10;;;;;;;5.11;71.19;101179.06;5095413;28;20394;-67
2023/11/18 04:16:19;;;;;;;1.98;0.10;;;;;;;5.08;72.39;101185.25;5106944;28;20039;-66
2023/11/18 04:18:45;;;;;;;0.63;0.10;;;;;;;4.96;71.85;101185.97;5101856;28;20042;-66
2023/11/18 04:21:12;;;;;;;1.27;0.10;;;;;;;4.87;72.95;101183.91;5092928;28;20122;-65
2023/11/18 04:23:39;;;;;;;0.20;0.00;;;;;;;4.82;73.16;101189.34;5092151;28;20040;-66
2023/11/18 04:26:07;;;;;;;0.50;0.13;;;;;;;4.83;72.37;101191.00;5092843;28;20066;-67
2023/11/18 04:28:32;;;;;;;1.48;0.20;;;;;;;4.80;73.22;101195.53;5090948;28;20479;-66
2023/11/18 04:30:58;;;;;;;0.22;0.05;;;;;;;4.69;74.32;101185.84;5091600;28;20028;-67
2023/11/18 04:33:25;;;;;;;0.50;0.10;;;;;;;4.60;74.74;101189.78;5093721;28;20048;-66
2023/11/18 04:35:51;;;;;;;0.40;0.10;;;;;;;4.53;75.74;101193.63;5091081;28;20035;-66
2023/11/18 04:38:18;;;;;;;0.32;0.00;;;;;;;4.47;74.92;101194.00;5092466;28;20395;-66
2023/11/18 04:40:47;;;;;;;0.45;0.05;;;;;;;4.44;75.73;101208.81;5091832;28;20081;-66
2023/11/18 04:43:12;;;;;;;2.47;0.20;;;;;;;4.38;76.58;101214.31;5092847;28;20028;-66
2023/11/18 04:45:39;;;;;;;0.77;0.10;;;;;;;4.34;77.06;101206.75;5089029;28;20088;-66
2023/11/18 04:48:05;;;;;;;1.55;0.20;;;;;;;4.33;76.96;101207.66;5086792;28;20039;-66
2023/11/18 04:50:32;;;;;;;0.50;0.10;;;;;;;4.30;76.80;101207.00;5091150;28;20024;-66
2023/11/18 04:52:58;;;;;;;0.60;0.10;;;;;;;4.29;76.77;101213.91;5091008;28;20394;-66
2023/11/18 04:55:23;;;;;;;0.80;0.13;;;;;;;4.30;75.57;101217.31;5091663;28;20043;-66
2023/11/18 04:57:49;;;;;;;4.57;0.10;;;;;;;4.33;75.47;101206.84;5091629;28;20414;-66
2023/11/18 05:00:17;;;;;;;0.70;0.10;;;;;;;4.33;76.11;101220.56;5092143;28;20428;-66
2023/11/18 05:02:47;;;;;;;1.63;0.10;;;;;;;4.36;76.05;101216.16;5090506;28;20042;-66
2023/11/18 05:05:14;;;;;;;0.50;0.20;;;;;;;4.38;76.00;101227.22;5092264;28;20126;-67
2023/11/18 05:07:40;;;;;;;0.65;0.10;;;;;;;4.36;75.56;101224.72;5091571;28;20119;-66
2023/11/18 05:10:08;;;;;;;0.43;0.10;;;;;;;4.35;76.50;101230.78;5090986;28;20118;-66
2023/11/18 05:12:33;;;;;;;0.15;0.00;;;;;;;4.34;76.49;101229.97;5089714;28;20114;-66
2023/11/18 05:14:59;;;;;;;0.70;0.10;;;;;;;4.32;76.77;101231.78;5091633;28;20531;-66
2023/11/18 05:17:26;;;;;;;0.60;0.10;;;;;;;4.24;76.55;101223.69;5089667;28;20420;-65
2023/11/18 05:19:51;;;;;;;1.60;0.17;;;;;;;4.24;76.50;101226.25;5091115;28;20353;-66
2023/11/18 05:22:17;;;;;;;0.55;0.10;;;;;;;4.27;76.03;101223.47;5100625;28;20097;-67
2023/11/18 05:24:43;;;;;;;0.68;0.10;;;;;;;4.33;74.79;101225.72;5091688;28;20734;-66
2023/11/18 05:27:09;;;;;;;0.28;0.13;;;;;;;4.38;74.98;101222.06;5091503;28;20025;-66
2023/11/18 05:29:34;;;;;;;1.85;0.03;;;;;;;4.41;73.76;101234.78;5092139;28;20490;-66
2023/11/18 05:32:00;;;;;;;0.10;0.10;;;;;;;4.41;74.37;101227.03;5091389;28;20035;-66
2023/11/18 05:34:25;;;;;;;3.60;0.10;;;;;;;4.30;75.34;101223.31;5091894;28;20392;-67
2023/11/18 05:36:54;;;;;;;1.27;0.10;;;;;;;4.15;76.67;101221.59;5089313;28;20479;-66
2023/11/18 05:39:27;;;;;;;1.48;0.10;;;;;;;4.08;77.14;101225.44;5091402;28;20088;-67
2023/11/18 05:41:55;;;;;;;0.50;0.10;;;;;;;4.07;76.91;101226.34;5087038;28;20035;-65
2023/11/18 05:44:30;;;;;;;1.63;0.10;;;;;;;4.06;77.34;101222.13;5086970;28;20043;-66
2023/11/18 05:46:58;;;;;;;1.25;0.10;;;;;;;4.06;76.76;101224.69;5089631;28;20016;-66
2023/11/18 05:49:24;;;;;;;0.75;0.10;;;;;;;4.11;76.34;101212.38;5090974;28;20130;-66
2023/11/18 05:51:50;;;;;;;0.93;0.10;;;;;;;4.12;76.24;101219.19;5102629;28;20111;-66
2023/11/18 05:54:15;;;;;;;0.60;0.10;;;;;;;4.16;76.18;101222.44;5103874;28;20039;-65
2023/11/18 05:56:41;;;;;;;0.70;0.20;;;;;;;4.16;75.85;101225.84;5102343;28;20028;-66
2023/11/18 05:59:08;;;;;;;1.83;0.20;;;;;;;4.14;75.66;101227.69;5112510;28;20031;-66
2023/11/18 06:01:34;;;;;;;0.88;0.10;;;;;;;4.11;76.37;101225.28;5094502;28;20387;-66
2023/11/18 06:04:00;;;;;;;0.52;0.08;;;;;;;4.12;76.71;101234.66;5097086;28;20128;-66
2023/11/18 06:06:26;;;;;;;1.70;0.40;;;;;;;4.07;77.03;101226.34;5095773;28;20400;-66
2023/11/18 06:08:53;;;;;;;1.23;0.22;;;;;;;4.02;77.16;101223.19;5092493;28;20468;-66
2023/11/18 06:11:19;;;;;;;1.58;0.45;;;;;;;4.00;77.55;101237.91;5107502;28;20042;-66
2023/11/18 06:13:51;;;;;;;0.60;0.20;;;;;;;4.01;76.67;101239.56;5094936;28;20098;-65
2023/11/18 06:16:21;;;;;;;1.10;0.10;;;;;;;4.04;76.14;101241.16;5096216;28;20123;-65
2023/11/18 06:18:49;;;;;;;2.05;0.20;;;;;;;4.09;77.14;101245.16;5094384;28;20039;-66
2023/11/18 06:21:16;;;;;;;0.60;0.10;;;;;;;4.11;76.60;101247.66;5091631;28;20040;-65
2023/11/18 06:23:42;;;;;;;0.73;0.30;;;;;;;4.06;76.46;101244.50;5086688;28;20048;-66
2023/11/18 06:26:10;;;;;;;0.82;0.10;;;;;;;4.04;76.93;101259.22;5089544;28;20121;-66
2023/11/18 06:28:37;;;;;;;0.88;0.10;;;;;;;4.04;76.74;101257.47;5089563;28;20488;-66
2023/11/18 06:31:03;;;;;;;0.77;0.10;;;;;;;4.05;76.67;101259.13;5087939;28;20061;-66
2023/11/18 06:33:28;;;;;;;0.50;0.10;;;;;;;4.03;77.47;101253.22;5089798;28;20118;-66
2023/11/18 06:35:57;;;;;;;1.92;0.20;;;;;;;4.09;76.02;101263.22;5090267;28;20043;-66
2023/11/18 06:38:22;;;;;;;2.05;0.20;;;;;;;4.13;75.44;101263.88;5089325;28;20102;-66
2023/11/18 06:40:52;;;;;;;0.40;0.00;;;;;;;4.13;76.12;101267.28;5089595;28;20471;-66
2023/11/18 06:43:19;;;;;;;4.40;0.10;;;;;;;4.12;76.47;101265.63;5088977;28;20044;-66
2023/11/18 06:45:44;;;;;;;0.88;0.50;;;;;;;4.20;75.38;101253.13;5089303;28;20094;-66
2023/11/18 06:48:10;;;;;;;4.10;0.63;;;;;;;4.23;76.24;101265.88;5087813;28;20050;-67
2023/11/18 06:50:36;;;;;;;3.53;0.30;;;;;;;4.17;76.36;101253.31;5090204;28;20067;-66
2023/11/18 06:53:01;;;;;;;0.93;0.15;;;;;;;4.18;75.99;101251.56;5089628;28;20028;-65
2023/11/18 06:55:27;;;;;;;1.70;0.15;;;;;;;4.24;76.02;101252.06;5089400;28;20117;-66
2023/11/18 06:57:54;;;;;;;1.15;0.10;;;;;;;4.30;75.68;101254.28;5088477;28;20081;-66
2023/11/18 07:00:21;;;;;;;0.52;0.15;;;;;;;4.32;75.82;101247.28;5089760;28;20032;-67
2023/11/18 07:02:47;;;;;;;4.28;0.10;;;;;;;4.46;73.96;101249.09;5087821;28;20031;-67
2023/11/18 07:05:14;;;;;;;0.88;0.13;;;;;;;4.52;73.50;101259.06;5088920;28;20073;-67
2023/11/18 07:07:40;;;;;;;0.90;0.10;;;;;;;4.58;73.75;101268.22;5087952;28;20063;-67
2023/11/18 07:10:07;;;;;;;0.68;0.10;;;;;;;4.70;72.60;101267.53;5089465;28;20256;-67
2023/11/18 07:12:37;;;;;;;0.40;0.10;;;;;;;4.73;72.11;101282.81;5088405;28;20493;-67
2023/11/18 07:15:04;;;;;;;0.22;0.10;;;;;;;4.80;72.70;101273.81;5089171;28;20161;-66
2023/11/18 07:17:30;;;;;;;0.50;0.10;;;;;;;4.81;73.33;101287.56;5088577;28;20433;-67
2023/11/18 07:19:55;;;;;;;0.80;0.10;;;;;;;4.78;73.70;101290.31;5101872;28;20146;-67
2023/11/18 07:22:21;;;;;;;0.82;0.10;;;;;;;4.76;73.31;101294.72;5098982;28;20036;-66
2023/11/18 07:24:46;;;;;;;1.85;0.25;;;;;;;4.81;74.19;101290.97;5089328;28;20198;-66
2023/11/18 07:27:11;;;;;;;4.30;0.20;;;;;;;4.88;73.25;101296.63;5088094;28;20024;-67
2023/11/18 07:29:37;;;;;;;1.40;0.10;;;;;;;4.87;73.62;101298.38;5086523;28;20090;-66
2023/11/18 07:32:05;;;;;;;0.63;0.10;;;;;;;4.84;73.43;101300.28;5089007;28;20467;-67
2023/11/18 07:34:32;;;;;;;1.38;0.28;;;;;;;4.82;73.28;101305.53;5088422;28;20507;-66
2023/11/18 07:36:59;;;;;;;1.15;0.30;;;;;;;4.93;72.98;101297.19;5093559;28;20073;-67
2023/11/18 07:39:36;;;;;;;0.20;0.10;;;;;;;5.03;72.13;101292.31;5093805;28;20074;-67
2023/11/18 07:42:01;;;;;;;0.77;0.10;;;;;;;5.10;71.89;101291.06;5092398;28;20403;-67
2023/11/18 07:44:27;;;;;;;5.10;0.10;;;;;;;5.15;71.71;101294.19;5090780;28;20032;-66
2023/11/18 07:46:53;;;;;;;2.10;0.10;;;;;;;5.19;72.63;101299.09;5091549;28;20031;-67
2023/11/18 07:49:18;;;;;;;4.97;0.25;;;;;;;5.25;72.18;101303.06;5091277;28;20027;-67
2023/11/18 07:51:44;;;;;;;1.02;0.17;;;;;;;5.32;71.47;101291.44;5099665;28;20533;-67
2023/11/18 07:54:10;;;;;;;0.38;0.10;;;;;;;5.39;71.18;101291.91;5107251;28;20032;-66
2023/11/18 07:56:36;;;;;;;1.65;0.10;;;;;;;5.43;71.33;101299.38;5101868;28;20031;-67
2023/11/18 07:59:03;;;;;;;0.60;0.20;;;;;;;5.51;69.65;101304.09;5092927;28;20047;-67
2023/11/18 08:01:28;;;;;;;0.88;0.10;;;;;;;5.58;70.10;101303.66;5095385;28;20051;-66
2023/11/18 08:03:54;;;;;;;1.80;0.43;;;;;;;5.65;69.85;101304.13;5097345;28;20028;-67
2023/11/18 08:06:20;;;;;;;0.30;0.10;;;;;;;5.73;70.17;101301.88;5102020;28;20086;-67
2023/11/18 08:08:47;;;;;;;0.60;0.10;;;;;;;5.79;70.92;101301.50;5094877;28;20082;-67
2023/11/18 08:11:13;;;;;;;0.20;0.10;;;;;;;5.83;70.68;101304.72;5100350;28;20031;-67
2023/11/18 08:13:39;;;;;;;0.85;0.10;;;;;;;5.90;69.76;101308.66;5111581;28;20131;-66
2023/11/18 08:16:08;;;;;;;1.10;0.13;;;;;;;5.99;69.90;101302.91;5092630;28;20085;-67
2023/11/18 08:18:35;;;;;;;0.95;0.10;;;;;;;6.07;69.91;101305.84;5094219;28;20082;-67
2023/11/18 08:21:01;;;;;;;0.30;0.10;;;;;;;6.16;69.20;101313.03;5098827;28;20044;-67
2023/11/18 08:23:31;;;;;;;2.60;0.10;;;;;;;6.23;69.20;101306.53;5090768;28;20068;-66
2023/11/18 08:25:57;;;;;;;1.25;0.20;;;;;;;6.26;69.60;101303.75;5092282;28;20040;-66
2023/11/18 08:28:22;;;;;;;1.67;0.20;;;;;;;6.33;70.12;101297.28;5093338;28;20032;-66
2023/11/18 08:30:48;;;;;;;0.32;0.10;;;;;;;6.45;68.05;101312.97;5090469;28;20127;-66
2023/11/18 08:33:14;;;;;;;3.60;0.10;;;;;;;6.54;68.41;101314.97;5093610;28;20020;-66
2023/11/18 08:35:42;;;;;;;0.20;0.10;;;;;;;6.60;68.44;101314.59;5090008;28;20403;-66
2023/11/18 08:38:07;;;;;;;0.40;0.10;;;;;;;6.68;69.51;101308.88;5092965;28;20040;-65
2023/11/18 08:40:34;;;;;;;0.95;0.15;;;;;;;6.76;68.13;101311.81;5091391;28;20078;-66
2023/11/18 08:43:01;;;;;;;1.05;0.10;;;;;;;6.84;68.36;101310.38;5091880;28;20028;-66
2023/11/18 08:45:29;;;;;;;0.65;0.10;;;;;;;6.97;67.66;101308.66;5090094;28;20044;-66
2023/11/18 08:47:55;;;;;;;1.23;0.17;;;;;;;7.01;66.23;101305.88;5090968;28;20115;-66
2023/11/18 08:50:23;;;;;;;1.35;0.20;;;;;;;7.07;67.06;101305.47;5090978;28;20040;-66
2023/11/18 08:52:52;;;;;;;0.65;0.20;;;;;;;7.16;67.42;101307.44;5091177;28;20139;-66
2023/11/18 08:55:22;;;;;;;1.10;0.20;;;;;;;7.21;67.04;101305.34;5089577;28;20032;-65
2023/11/18 08:58:34;;;;;;;0.95;0.10;;;;;;;7.28;67.36;101309.22;5091215;28;20031;-66
2023/11/18 09:00:47;;;;;;;;;;;;;;;7.30;65.67;101320.31;5077693;28;20051;-66
2023/11/18 09:03:17;;;;;;;1.00;0.05;;;;;;;7.48;67.23;101318.25;5091637;28;19912;-65
2023/11/18 09:05:58;;;;;;;0.50;0.10;;;;;;;7.61;65.82;101314.69;5091277;28;20062;-66
2023/11/18 09:08:35;;;;;;;1.55;0.10;;;;;;;7.59;67.01;101319.16;5090663;28;20035;-66
2023/11/18 09:11:07;;;;;;;0.32;0.10;;;;;;;7.66;66.22;101320.41;5091536;28;20060;-66
2023/11/18 09:13:37;;;;;;;1.98;0.10;;;;;;;7.73;67.19;101323.41;5091256;28;20035;-66
2023/11/18 09:16:08;;;;;;;1.00;0.20;;;;;;;7.75;68.30;101331.09;5089916;28;20105;-66
2023/11/18 09:18:34;;;;;;;0.35;0.10;;;;;;;7.76;66.56;101323.19;5090506;28;20028;-65
2023/11/18 09:21:01;;;;;;;1.27;0.10;;;;;;;7.91;67.29;101329.09;5088786;28;20444;-71
2023/11/18 09:23:27;;;;;;;0.20;0.00;;;;;;;8.05;66.63;101328.94;5090927;28;20052;-66
2023/11/18 09:25:55;;;;;;;0.93;0.05;;;;;;;8.12;66.19;101335.38;5090637;28;20038;-67
2023/11/18 09:28:28;;;;;;;0.75;0.10;;;;;;;8.10;66.38;101326.84;5091641;28;20032;-66
2023/11/18 09:30:54;;;;;;;0.50;0.10;;;;;;;8.18;65.58;101316.78;5090853;28;20024;-66
2023/11/18 09:33:32;;;;;;;0.32;0.10;;;;;;;8.31;66.26;101317.56;5089987;28;20069;-66
2023/11/18 09:36:02;;;;;;;2.60;0.15;;;;;;;8.43;65.57;101309.88;5089597;28;20028;-66
2023/11/18 09:38:32;;;;;;;0.55;0.10;;;;;;;8.56;63.80;101315.81;5088755;28;20426;-67
2023/11/18 09:41:10;;;;;;;0.50;0.08;;;;;;;8.52;66.46;101307.41;5090545;28;20032;-66
2023/11/18 09:43:46;;;;;;;0.55;0.10;;;;;;;8.56;65.13;101302.84;5088599;28;20032;-66
2023/11/18 09:46:23;;;;;;;0.30;0.00;;;;;;;8.77;64.83;101313.44;5089704;28;20471;-66
2023/11/18 09:49:02;;;;;;;0.40;0.10;;;;;;;8.78;64.36;101309.91;5089890;28;20028;-66
2023/11/18 09:51:33;;;;;;;0.30;0.10;;;;;;;8.84;66.16;101302.50;5103173;28;20071;-66
2023/11/18 09:54:10;;;;;;;0.52;0.13;;;;;;;8.80;66.05;101303.66;5091271;28;20036;-66
2023/11/18 09:57:12;;;;;;;1.38;0.13;;;;;;;8.92;63.13;101299.34;5090846;28;20064;-66
2023/11/18 09:59:58;;;;;;;0.20;0.10;;;;;;;9.10;62.86;101305.75;5093606;28;20085;-66
2023/11/18 10:02:24;;;;;;;0.20;0.10;;;;;;;9.17;64.15;101314.75;5099438;28;20387;-66
2023/11/18 10:04:56;;;;;;;6.50;0.20;;;;;;;9.36;63.97;101314.19;5091964;28;20031;-66
2023/11/18 10:07:26;;;;;;;1.95;0.10;;;;;;;9.55;62.86;101314.44;5090532;28;20024;-66
2023/11/18 10:09:57;;;;;;;0.93;0.20;;;;;;;9.49;64.44;101317.50;5099153;27;20030;-66
2023/11/18 10:12:23;;;;;;;0.22;0.10;;;;;;;9.67;62.92;101325.69;5094055;28;20429;-65
2023/11/18 10:14:52;;;;;;;0.22;0.10;;;;;;;9.81;63.57;101322.84;5093946;28;20102;-66
2023/11/18 10:17:18;;;;;;;0.32;0.10;;;;;;;9.92;63.37;101311.63;5091920;28;20039;-66
2023/11/18 10:20:13;;;;;;;1.23;0.10;;;;;;;9.98;60.62;101305.91;5106664;28;20048;-66
2023/11/18 10:22:40;;;;;;;0.32;0.10;;;;;;;10.01;62.84;101303.06;5088178;28;20086;-66
2023/11/18 10:25:06;;;;;;;0.70;0.10;;;;;;;10.15;61.22;101296.78;5091778;28;20032;-67
2023/11/18 10:27:31;;;;;;;0.60;0.15;;;;;;;10.30;60.81;101283.41;5091240;28;20036;-66
2023/11/18 10:29:58;;;;;;;1.05;0.10;;;;;;;10.28;63.17;101276.66;5091681;28;20035;-66
2023/11/18 10:32:27;;;;;;;0.75;0.20;;;;;;;10.19;63.22;101282.56;5091735;28;20491;-66
2023/11/18 10:34:57;;;;;;;0.32;0.10;;;;;;;10.19;61.30;101277.34;5090310;28;20036;-66
2023/11/18 10:37:23;;;;;;;0.77;0.17;;;;;;;10.41;63.67;101260.84;5091393;28;20036;-66
2023/11/18 10:39:52;;;;;;;2.58;0.25;;;;;;;10.33;64.58;101264.09;5090907;28;20573;-66
2023/11/18 10:42:20;;;;;;;1.70;0.15;;;;;;;10.28;65.01;101259.25;5091244;28;20107;-66
2023/11/18 10:44:58;;;;;;;0.20;0.10;;;;;;;10.23;60.37;101255.34;5093223;28;20111;-66
2023/11/18 10:47:28;;;;;;;0.20;0.10;;;;;;;10.32;64.83;101256.41;5093440;28;20036;-66
2023/11/18 10:49:57;;;;;;;1.20;0.20;;;;;;;10.26;64.73;101262.94;5083307;28;20032;-66
2023/11/18 10:52:25;;;;;;;1.35;0.20;;;;;;;10.28;65.22;101261.84;5091246;28;20104;-66
2023/11/18 10:54:54;;;;;;;2.95;0.30;;;;;;;10.32;66.13;101267.66;5090531;28;20024;-66
2023/11/18 10:57:20;;;;;;;0.40;0.10;;;;;;;10.32;65.56;101262.44;5086692;28;20523;-67
2023/11/18 11:00:03;;;;;;;0.93;0.10;;;;;;;10.26;64.82;101262.94;5090727;28;20055;-66
2023/11/18 11:02:38;;;;;;;0.50;0.10;;;;;;;10.27;66.50;101259.38;5089415;28;20399;-66
2023/11/18 11:05:03;;;;;;;0.30;0.10;;;;;;;10.16;66.72;101260.19;5090308;28;20475;-65
2023/11/18 11:07:32;;;;;;;0.55;0.10;;;;;;;10.16;64.91;101252.38;5090087;28;20047;-65
2023/11/18 11:09:57;;;;;;;0.65;0.10;;;;;;;10.32;65.75;101241.59;5090623;28;20415;-66
2023/11/18 11:12:25;;;;;;;0.63;0.10;;;;;;;10.47;64.32;101249.94;5091145;28;20041;-67
2023/11/18 11:14:59;;;;;;;0.47;0.10;;;;;;;10.67;61.62;101256.94;5090596;28;20024;-67
2023/11/18 11:17:30;;;;;;;0.50;0.10;;;;;;;10.86;62.47;101259.72;5091187;28;20061;-67
2023/11/18 11:20:17;;;;;;;1.23;0.20;;;;;;;10.83;58.61;101254.75;5091061;28;20507;-67
2023/11/18 11:23:14;;;;;;;0.30;0.10;;;;;;;10.80;61.14;101259.38;5089737;28;20055;-67
2023/11/18 11:26:01;;;;;;;0.57;0.10;;;;;;;10.81;63.04;101258.44;5089967;28;20399;-68
2023/11/18 11:28:50;;;;;;;1.17;0.10;;;;;;;10.80;64.33;101267.22;5090813;28;20353;-67
2023/11/18 11:31:41;;;;;;;0.80;0.10;;;;;;;10.80;65.16;101262.81;5086067;28;20032;-67
2023/11/18 11:34:18;;;;;;;0.20;0.00;;;;;;;10.78;62.90;101253.47;5084675;28;20032;-67
2023/11/18 11:36:50;;;;;;;1.27;0.10;;;;;;;10.95;63.77;101256.31;5090226;28;20115;-68
2023/11/18 11:39:25;;;;;;;0.40;0.10;;;;;;;11.08;63.17;101258.72;5085683;28;20550;-67